createdAt,value
2024-02-28T00:00:55.884Z,90.74
2024-02-28T00:01:55.839Z,90.74
2024-02-28T00:02:55.803Z,90.64
2024-02-28T00:03:55.805Z,90.53
2024-02-28T00:04:55.786Z,90.64
2024-02-28T00:05:55.770Z,91.05
2024-02-28T00:06:55.760Z,90.84
2024-02-28T00:07:55.718Z,91.26
2024-02-28T00:08:55.737Z,91.26
2024-02-28T00:09:55.733Z,91.99
2024-02-28T00:10:55.705Z,92.50
2024-02-28T00:11:55.688Z,92.71
2024-02-28T00:12:55.667Z,92.71
2024-02-28T00:13:55.618Z,92.81
2024-02-28T00:14:55.635Z,92.19
2024-02-28T00:15:55.768Z,92.09
2024-02-28T00:16:55.574Z,91.99
2024-02-28T00:17:55.620Z,91.99
2024-02-28T00:18:55.593Z,92.19
2024-02-28T00:19:55.549Z,92.30
2024-02-28T00:20:55.537Z,92.19
2024-02-28T00:21:55.598Z,92.40
2024-02-28T00:22:55.547Z,91.88
2024-02-28T00:23:55.500Z,91.78
2024-02-28T00:24:55.496Z,91.78
2024-02-28T00:25:55.527Z,91.67
2024-02-28T00:26:55.457Z,91.78
2024-02-28T00:27:55.530Z,91.57
2024-02-28T00:28:55.418Z,91.26
2024-02-28T00:29:55.457Z,91.26
2024-02-28T00:30:55.454Z,91.16
2024-02-28T00:31:55.415Z,91.36
2024-02-28T00:32:55.416Z,91.16
2024-02-28T00:33:55.451Z,90.95
2024-02-28T00:34:55.398Z,91.16
2024-02-28T00:35:55.338Z,91.78
2024-02-28T00:36:56.456Z,91.88
2024-02-28T00:37:55.325Z,91.99
2024-02-28T00:38:55.297Z,91.99
2024-02-28T00:39:55.354Z,91.78
2024-02-28T00:40:55.290Z,91.99
2024-02-28T00:41:55.249Z,92.40
2024-02-28T00:42:55.286Z,92.30
2024-02-28T00:43:55.276Z,92.19
2024-02-28T00:44:55.207Z,92.40
2024-02-28T00:45:55.241Z,92.91
2024-02-28T00:46:55.177Z,93.02
2024-02-28T00:47:55.223Z,92.91
2024-02-28T00:48:55.193Z,92.81
2024-02-28T00:49:55.158Z,92.50
2024-02-28T00:50:55.133Z,92.40
2024-02-28T00:51:55.213Z,92.19
2024-02-28T00:52:55.115Z,92.03
2024-02-28T00:53:55.092Z,92.09
2024-02-28T00:54:55.130Z,91.99
2024-02-28T00:55:55.089Z,91.99
2024-02-28T00:56:55.063Z,91.93
2024-02-28T00:57:55.082Z,91.72
2024-02-28T00:58:55.043Z,91.41
2024-02-28T00:59:54.994Z,91.41
2024-02-28T01:00:55.079Z,91.20
2024-02-28T01:01:54.982Z,90.89
2024-02-28T01:02:54.975Z,90.89
2024-02-28T01:03:55.047Z,90.99
2024-02-28T01:04:54.923Z,91.09
2024-02-28T01:05:54.938Z,90.99
2024-02-28T01:06:54.953Z,91.41
2024-02-28T01:07:54.916Z,91.20
2024-02-28T01:08:54.869Z,90.99
2024-02-28T01:09:54.948Z,91.20
2024-02-28T01:10:54.887Z,91.41
2024-02-28T01:11:54.864Z,91.93
2024-02-28T01:12:54.915Z,92.40
2024-02-28T01:13:54.827Z,92.50
2024-02-28T01:14:54.828Z,92.85
2024-02-28T01:15:54.819Z,93.06
2024-02-28T01:16:54.792Z,93.16
2024-02-28T01:17:54.798Z,93.06
2024-02-28T01:18:54.890Z,92.55
2024-02-28T01:19:54.759Z,92.34
2024-02-28T01:20:54.709Z,92.13
2024-02-28T01:21:54.749Z,92.44
2024-02-28T01:22:54.706Z,92.44
2024-02-28T01:23:54.698Z,92.44
2024-02-28T01:24:54.709Z,92.34
2024-02-28T01:25:54.650Z,92.65
2024-02-28T01:26:54.662Z,92.85
2024-02-28T01:27:54.712Z,92.55
2024-02-28T01:28:54.605Z,92.24
2024-02-28T01:29:54.609Z,91.82
2024-02-28T01:30:54.711Z,91.61
2024-02-28T01:31:54.575Z,91.51
2024-02-28T01:32:54.618Z,91.61
2024-02-28T01:33:54.622Z,91.41
2024-02-28T01:34:54.543Z,91.51
2024-02-28T01:35:56.950Z,91.72
2024-02-28T01:36:54.570Z,92.03
2024-02-28T01:37:54.495Z,92.03
2024-02-28T01:38:54.467Z,92.03
2024-02-28T01:39:54.517Z,92.13
2024-02-28T01:40:54.473Z,92.24
2024-02-28T01:41:54.463Z,92.03
2024-02-28T01:42:54.446Z,92.24
2024-02-28T01:43:54.422Z,92.44
2024-02-28T01:44:54.405Z,92.44
2024-02-28T01:45:54.478Z,92.44
2024-02-28T01:46:54.362Z,92.44
2024-02-28T01:47:54.387Z,92.24
2024-02-28T01:48:54.371Z,92.13
2024-02-28T01:49:54.387Z,92.24
2024-02-28T01:50:54.334Z,92.13
2024-02-28T01:51:54.354Z,92.13
2024-02-28T01:52:54.294Z,92.34
2024-02-28T01:53:54.273Z,92.24
2024-02-28T01:54:54.351Z,91.93
2024-02-28T01:55:54.262Z,91.61
2024-02-28T01:56:54.246Z,91.41
2024-02-28T01:57:54.362Z,91.93
2024-02-28T01:58:54.212Z,92.03
2024-02-28T01:59:54.226Z,92.55
2024-02-28T02:00:54.348Z,92.85
2024-02-28T02:01:54.212Z,92.55
2024-02-28T02:02:54.147Z,92.55
2024-02-28T02:03:54.195Z,92.44
2024-02-28T02:04:54.275Z,92.24
2024-02-28T02:19:19.890Z,92.44
2024-02-28T02:20:04.820Z,92.24
2024-02-28T02:21:04.812Z,91.93
2024-02-28T02:22:04.817Z,92.34
2024-02-28T02:23:04.796Z,93.06
2024-02-28T02:24:04.768Z,93.16
2024-02-28T02:25:04.739Z,92.96
2024-02-28T02:26:04.740Z,92.85
2024-02-28T02:27:04.715Z,92.76
2024-02-28T02:28:04.725Z,92.55
2024-02-28T02:29:04.693Z,92.76
2024-02-28T02:30:04.712Z,92.90
2024-02-28T02:31:04.667Z,93.00
2024-02-28T02:32:04.687Z,92.85
2024-02-28T02:33:04.800Z,93.00
2024-02-28T02:34:04.671Z,93.21
2024-02-28T02:35:04.649Z,93.00
2024-02-28T02:36:04.649Z,93.00
2024-02-28T02:37:14.305Z,92.80
2024-02-28T02:38:04.575Z,93.00
2024-02-28T02:39:04.551Z,93.00
2024-02-28T02:40:04.570Z,93.10
2024-02-28T02:41:04.541Z,92.90
2024-02-28T02:42:04.613Z,92.69
2024-02-28T02:43:04.501Z,92.80
2024-02-28T02:44:04.500Z,92.59
2024-02-28T02:45:04.514Z,92.69
2024-02-28T02:46:04.484Z,92.69
2024-02-28T02:47:04.463Z,92.69
2024-02-28T02:48:04.533Z,92.90
2024-02-28T02:49:04.421Z,92.80
2024-02-28T02:50:04.447Z,92.69
2024-02-28T02:51:04.424Z,92.69
2024-02-28T02:52:04.399Z,92.69
2024-02-28T02:53:04.369Z,92.38
2024-02-28T02:54:04.383Z,92.18
2024-02-28T02:55:04.367Z,91.97
2024-02-28T02:56:04.356Z,92.07
2024-02-28T02:57:04.343Z,92.07
2024-02-28T02:58:04.379Z,91.76
2024-02-28T02:59:04.313Z,91.55
2024-02-28T03:00:04.282Z,91.76
2024-02-28T03:01:04.381Z,91.97
2024-02-28T03:02:04.259Z,92.18
2024-02-28T03:03:04.242Z,92.38
2024-02-28T03:04:04.243Z,92.38
2024-02-28T03:05:04.286Z,92.28
2024-02-28T03:06:04.220Z,92.07
2024-02-28T03:07:04.197Z,91.76
2024-02-28T03:08:04.228Z,91.66
2024-02-28T03:09:04.165Z,91.55
2024-02-28T03:10:04.258Z,91.76
2024-02-28T03:11:04.167Z,91.55
2024-02-28T03:12:04.128Z,91.24
2024-02-28T03:13:04.128Z,91.35
2024-02-28T03:14:04.142Z,91.35
2024-02-28T03:15:04.095Z,91.35
2024-02-28T03:16:04.121Z,91.24
2024-02-28T03:17:04.083Z,91.14
2024-02-28T03:18:04.087Z,91.03
2024-02-28T03:19:04.094Z,91.14
2024-02-28T03:20:04.059Z,91.14
2024-02-28T03:21:04.016Z,91.03
2024-02-28T03:22:04.045Z,90.93
2024-02-28T03:23:03.993Z,90.72
2024-02-28T03:24:04.010Z,90.62
2024-02-28T03:25:04.032Z,90.31
2024-02-28T03:26:03.959Z,90.31
2024-02-28T03:27:03.957Z,90.93
2024-02-28T03:28:03.983Z,91.24
2024-02-28T03:29:03.934Z,91.24
2024-02-28T03:30:03.923Z,90.83
2024-02-28T03:31:03.880Z,90.83
2024-02-28T03:32:03.898Z,90.83
2024-02-28T03:33:03.963Z,90.72
2024-02-28T03:34:04.083Z,90.83
2024-02-28T03:35:03.816Z,90.62
2024-02-28T03:36:03.865Z,90.72
2024-02-28T03:37:03.803Z,90.83
2024-02-28T03:38:03.802Z,90.93
2024-02-28T03:39:03.798Z,90.83
2024-02-28T03:40:03.816Z,90.83
2024-02-28T03:41:03.758Z,91.03
2024-02-28T03:42:03.755Z,91.14
2024-02-28T03:43:03.826Z,91.35
2024-02-28T03:44:03.723Z,90.93
2024-02-28T03:45:03.714Z,91.03
2024-02-28T03:46:03.713Z,90.83
2024-02-28T03:47:03.691Z,90.52
2024-02-28T03:48:03.748Z,90.41
2024-02-28T03:49:03.740Z,90.93
2024-02-28T03:50:03.650Z,91.03
2024-02-28T03:51:03.653Z,90.83
2024-02-28T03:52:03.677Z,90.83
2024-02-28T03:53:03.623Z,91.24
2024-02-28T03:54:03.602Z,91.14
2024-02-28T03:55:03.577Z,91.14
2024-02-28T03:56:03.589Z,91.14
2024-02-28T03:57:03.581Z,91.55
2024-02-28T03:58:03.575Z,91.45
2024-02-28T03:59:03.514Z,91.55
2024-02-28T04:00:03.568Z,91.66
2024-02-28T04:01:03.582Z,91.76
2024-02-28T04:02:03.502Z,91.76
2024-02-28T04:03:03.478Z,91.45
2024-02-28T04:04:03.503Z,90.93
2024-02-28T04:05:03.502Z,90.72
2024-02-28T04:06:03.457Z,90.72
2024-02-28T04:07:03.479Z,90.93
2024-02-28T04:08:03.407Z,91.03
2024-02-28T04:09:03.388Z,90.83
2024-02-28T04:10:03.396Z,90.72
2024-02-28T04:11:03.386Z,90.20
2024-02-28T04:12:03.357Z,90.31
2024-02-28T04:13:03.407Z,90.10
2024-02-28T04:14:03.321Z,90.41
2024-02-28T04:15:03.312Z,90.41
2024-02-28T04:16:03.349Z,90.31
2024-02-28T04:17:03.288Z,90.10
2024-02-28T04:18:03.337Z,90.10
2024-02-28T04:19:03.313Z,90.10
2024-02-28T04:20:03.243Z,90.00
2024-02-28T04:21:03.254Z,90.10
2024-02-28T04:22:03.257Z,90.10
2024-02-28T04:23:03.252Z,90.10
2024-02-28T04:24:03.190Z,90.10
2024-02-28T04:25:03.232Z,89.89
2024-02-28T04:26:03.204Z,90.00
2024-02-28T04:27:03.163Z,90.04
2024-02-28T04:28:03.237Z,90.04
2024-02-28T04:29:03.167Z,90.14
2024-02-28T04:30:03.126Z,89.83
2024-02-28T04:31:03.186Z,90.25
2024-02-28T04:32:03.123Z,90.04
2024-02-28T04:33:03.158Z,90.25
2024-02-28T04:34:03.133Z,90.25
2024-02-28T04:35:03.116Z,90.35
2024-02-28T04:36:03.031Z,90.77
2024-02-28T04:37:03.059Z,90.87
2024-02-28T04:38:03.021Z,90.66
2024-02-28T04:39:03.023Z,90.35
2024-02-28T04:40:03.052Z,90.25
2024-02-28T04:41:02.990Z,90.04
2024-02-28T04:42:02.992Z,89.83
2024-02-28T04:43:02.964Z,89.73
2024-02-28T04:44:02.992Z,89.62
2024-02-28T04:45:02.947Z,89.73
2024-02-28T04:46:02.969Z,90.14
2024-02-28T04:47:02.898Z,90.25
2024-02-28T04:48:02.904Z,90.14
2024-02-28T04:49:02.924Z,90.04
2024-02-28T04:50:02.856Z,90.45
2024-02-28T04:51:02.848Z,90.45
2024-02-28T04:52:02.939Z,90.56
2024-02-28T04:53:02.829Z,90.56
2024-02-28T04:54:02.817Z,90.56
2024-02-28T04:55:02.889Z,90.35
2024-02-28T04:56:02.774Z,90.35
2024-02-28T04:57:02.795Z,90.35
2024-02-28T04:58:02.784Z,90.35
2024-02-28T04:59:02.760Z,90.25
2024-02-28T05:00:02.728Z,90.14
2024-02-28T05:01:02.779Z,89.94
2024-02-28T05:02:02.769Z,89.83
2024-02-28T05:03:02.713Z,89.94
2024-02-28T05:04:02.727Z,89.94
2024-02-28T05:05:02.673Z,89.94
2024-02-28T05:06:02.649Z,89.73
2024-02-28T05:07:02.752Z,89.42
2024-02-28T05:08:02.661Z,89.42
2024-02-28T05:09:02.726Z,89.83
2024-02-28T05:10:02.631Z,90.04
2024-02-28T05:11:02.610Z,89.73
2024-02-28T05:12:02.591Z,89.73
2024-02-28T05:13:02.707Z,89.94
2024-02-28T05:14:02.554Z,89.73
2024-02-28T05:15:02.532Z,89.31
2024-02-28T05:16:02.559Z,89.42
2024-02-28T05:17:02.523Z,89.83
2024-02-28T05:18:02.572Z,89.83
2024-02-28T05:19:02.546Z,89.83
2024-02-28T05:20:02.466Z,89.83
2024-02-28T05:21:02.460Z,89.94
2024-02-28T05:22:02.594Z,89.83
2024-02-28T05:23:02.439Z,89.83
2024-02-28T05:24:02.410Z,89.62
2024-02-28T05:25:02.460Z,89.73
2024-02-28T05:26:02.410Z,89.56
2024-02-28T05:27:02.394Z,89.46
2024-02-28T05:28:02.410Z,89.46
2024-02-28T05:29:02.381Z,89.67
2024-02-28T05:30:02.385Z,89.56
2024-02-28T05:31:02.392Z,89.56
2024-02-28T05:32:02.320Z,89.56
2024-02-28T05:33:02.366Z,89.36
2024-02-28T05:34:02.445Z,89.36
2024-02-28T05:35:02.303Z,89.36
2024-02-28T05:36:02.268Z,89.15
2024-02-28T05:37:02.314Z,89.36
2024-02-28T05:38:02.238Z,89.46
2024-02-28T05:39:02.324Z,89.25
2024-02-28T05:40:02.286Z,89.15
2024-02-28T05:41:02.225Z,89.25
2024-02-28T05:42:02.196Z,89.15
2024-02-28T05:43:02.229Z,89.04
2024-02-28T05:44:02.171Z,88.84
2024-02-28T05:45:02.155Z,88.94
2024-02-28T05:46:02.189Z,89.25
2024-02-28T05:47:02.127Z,89.56
2024-02-28T05:48:02.181Z,89.36
2024-02-28T05:49:02.133Z,89.25
2024-02-28T05:50:02.151Z,89.25
2024-02-28T05:51:02.123Z,89.46
2024-02-28T05:52:02.126Z,89.46
2024-02-28T05:53:02.074Z,89.25
2024-02-28T05:54:02.045Z,89.25
2024-02-28T05:55:02.197Z,89.77
2024-02-28T05:56:02.005Z,89.67
2024-02-28T05:57:02.030Z,89.56
2024-02-28T05:58:02.024Z,89.46
2024-02-28T05:59:01.996Z,89.36
2024-02-28T06:00:01.987Z,89.25
2024-02-28T06:01:02.102Z,89.04
2024-02-28T06:02:01.926Z,89.15
2024-02-28T06:03:01.912Z,89.15
2024-02-28T06:04:02.333Z,89.25
2024-02-28T06:05:01.912Z,89.36
2024-02-28T06:06:01.875Z,89.25
2024-02-28T06:07:01.910Z,89.15
2024-02-28T06:08:01.853Z,89.04
2024-02-28T06:09:01.850Z,88.94
2024-02-28T06:10:01.861Z,89.04
2024-02-28T06:11:01.840Z,88.94
2024-02-28T06:12:01.789Z,89.04
2024-02-28T06:13:01.841Z,89.04
2024-02-28T06:14:01.790Z,89.04
2024-02-28T06:15:01.775Z,89.04
2024-02-28T06:16:01.775Z,89.04
2024-02-28T06:17:01.768Z,89.15
2024-02-28T06:18:01.814Z,88.94
2024-02-28T06:19:03.956Z,88.84
2024-02-28T06:20:01.700Z,88.73
2024-02-28T06:21:01.676Z,88.73
2024-02-28T06:22:01.687Z,88.84
2024-02-28T06:23:07.883Z,88.94
2024-02-28T06:24:02.640Z,88.84
2024-02-28T06:25:01.700Z,88.84
2024-02-28T06:26:01.603Z,88.84
2024-02-28T06:27:01.589Z,88.73
2024-02-28T06:28:01.704Z,88.73
2024-02-28T06:29:01.603Z,88.94
2024-02-28T06:30:01.635Z,89.04
2024-02-28T06:31:01.593Z,89.04
2024-02-28T06:32:01.521Z,88.94
2024-02-28T06:33:01.560Z,88.84
2024-02-28T06:34:01.624Z,88.73
2024-02-28T06:35:01.501Z,88.78
2024-02-28T06:36:01.474Z,88.67
2024-02-28T06:37:01.507Z,88.57
2024-02-28T06:38:01.474Z,88.57
2024-02-28T06:39:01.434Z,88.46
2024-02-28T06:40:01.431Z,88.46
2024-02-28T06:41:01.429Z,88.46
2024-02-28T06:42:01.386Z,88.36
2024-02-28T06:43:01.461Z,88.36
2024-02-28T06:44:01.367Z,88.05
2024-02-28T06:45:01.364Z,87.84
2024-02-28T06:46:01.458Z,87.74
2024-02-28T06:47:01.358Z,87.90
2024-02-28T06:48:01.401Z,88.05
2024-02-28T06:49:01.402Z,87.90
2024-02-28T06:50:01.281Z,87.90
2024-02-28T06:51:01.278Z,88.05
2024-02-28T06:52:01.296Z,87.90
2024-02-28T06:53:01.295Z,87.90
2024-02-28T06:54:01.245Z,88.01
2024-02-28T06:55:01.404Z,87.90
2024-02-28T06:56:01.222Z,87.80
2024-02-28T06:57:01.222Z,87.80
2024-02-28T06:58:01.244Z,88.01
2024-02-28T06:59:01.191Z,88.01
2024-02-28T07:00:01.195Z,87.80
2024-02-28T07:01:02.698Z,87.80
2024-02-28T07:02:01.179Z,87.80
2024-02-28T07:03:01.131Z,87.80
2024-02-28T07:04:01.239Z,87.90
2024-02-28T07:05:01.106Z,87.80
2024-02-28T07:06:01.083Z,87.90
2024-02-28T07:07:01.205Z,88.11
2024-02-28T07:08:01.050Z,88.32
2024-02-28T07:09:01.062Z,88.42
2024-02-28T07:10:01.098Z,88.53
2024-02-28T07:11:01.083Z,88.63
2024-02-28T07:12:01.034Z,88.63
2024-02-28T07:13:01.070Z,88.53
2024-02-28T07:14:00.972Z,88.63
2024-02-28T07:15:00.965Z,88.63
2024-02-28T07:16:01.033Z,88.32
2024-02-28T07:17:00.941Z,88.21
2024-02-28T07:18:00.962Z,88.01
2024-02-28T07:19:01.000Z,87.90
2024-02-28T07:20:00.964Z,87.70
2024-02-28T07:21:00.917Z,87.59
2024-02-28T07:22:00.939Z,87.90
2024-02-28T07:23:00.869Z,87.70
2024-02-28T07:24:00.841Z,87.66
2024-02-28T07:25:00.899Z,87.55
2024-02-28T07:26:08.928Z,87.35
2024-02-28T07:27:01.807Z,87.45
2024-02-28T07:28:00.921Z,87.55
2024-02-28T07:29:00.790Z,87.45
2024-02-28T07:30:00.799Z,87.66
2024-02-28T07:31:00.780Z,87.76
2024-02-28T07:32:00.759Z,87.45
2024-02-28T07:33:00.793Z,87.24
2024-02-28T07:34:00.732Z,87.04
2024-02-28T07:35:00.722Z,86.93
2024-02-28T07:36:00.678Z,86.72
2024-02-28T07:37:00.700Z,86.72
2024-02-28T07:38:00.738Z,86.47
2024-02-28T07:39:00.679Z,86.37
2024-02-28T07:40:00.753Z,86.58
2024-02-28T07:41:00.629Z,86.68
2024-02-28T07:42:00.634Z,86.89
2024-02-28T07:43:00.653Z,86.79
2024-02-28T07:44:00.597Z,86.58
2024-02-28T07:45:00.589Z,86.47
2024-02-28T07:46:00.714Z,86.27
2024-02-28T07:47:00.559Z,86.17
2024-02-28T07:48:00.602Z,86.17
2024-02-28T07:49:00.647Z,86.07
2024-02-28T07:50:00.512Z,86.07
2024-02-28T07:51:00.547Z,85.92
2024-02-28T07:52:00.628Z,85.82
2024-02-28T07:53:00.519Z,85.82
2024-02-28T07:54:00.485Z,85.82
2024-02-28T07:55:00.556Z,85.82
2024-02-28T07:56:00.475Z,85.50
2024-02-28T07:57:00.448Z,85.19
2024-02-28T07:58:00.556Z,85.09
2024-02-28T07:59:00.429Z,84.99
2024-02-28T08:00:00.411Z,84.99
2024-02-28T08:01:00.489Z,84.95
2024-02-28T08:02:00.538Z,84.95
2024-02-28T08:03:00.361Z,84.84
2024-02-28T08:04:00.421Z,84.84
2024-02-28T08:05:00.372Z,84.53
2024-02-28T08:06:00.317Z,84.29
2024-02-28T08:07:00.350Z,84.39
2024-02-28T08:08:00.289Z,84.08
2024-02-28T08:09:00.279Z,83.87
2024-02-28T08:10:00.420Z,83.84
2024-02-28T08:11:00.256Z,83.63
2024-02-28T08:12:00.272Z,83.32
2024-02-28T08:13:00.277Z,83.42
2024-02-28T08:14:00.199Z,83.22
2024-02-28T08:15:00.219Z,82.70
2024-02-28T08:16:00.270Z,82.39
2024-02-28T08:17:00.169Z,82.50
2024-02-28T08:18:00.257Z,82.70
2024-02-28T08:19:12.165Z,82.66
2024-02-28T08:20:00.128Z,82.66
2024-02-28T08:21:00.105Z,82.35
2024-02-28T08:22:00.160Z,81.84
2024-02-28T08:23:00.119Z,81.84
2024-02-28T08:24:00.059Z,81.63
2024-02-28T08:25:00.158Z,81.42
2024-02-28T08:26:00.041Z,81.32
2024-02-28T08:27:00.019Z,81.32
2024-02-28T08:28:00.084Z,81.32
2024-02-28T08:29:00.018Z,80.90
2024-02-28T08:30:00.008Z,80.76
2024-02-28T08:31:00.135Z,80.87
2024-02-28T08:31:59.969Z,80.97
2024-02-28T08:32:59.969Z,80.76
2024-02-28T08:34:00.041Z,80.76
2024-02-28T08:34:59.903Z,80.46
2024-02-28T08:35:59.898Z,80.32
2024-02-28T08:36:59.931Z,80.00
2024-02-28T08:37:59.867Z,79.80
2024-02-28T08:38:59.852Z,79.90
2024-02-28T08:40:00.037Z,79.90
2024-02-28T08:40:59.838Z,79.69
2024-02-28T08:41:59.824Z,79.76
2024-02-28T08:42:59.868Z,79.55
2024-02-28T08:43:59.788Z,79.14
2024-02-28T08:44:59.781Z,79.11
2024-02-28T08:45:59.834Z,78.80
2024-02-28T08:46:59.757Z,78.80
2024-02-28T08:47:59.807Z,78.49
2024-02-28T08:48:59.746Z,78.24
2024-02-28T08:49:59.732Z,77.62
2024-02-28T08:50:59.738Z,77.31
2024-02-28T08:51:59.729Z,77.11
2024-02-28T08:52:59.684Z,77.22
2024-02-28T08:53:59.677Z,77.28
2024-02-28T08:54:59.770Z,76.93
2024-02-28T08:55:59.664Z,75.63
2024-02-28T08:57:03.891Z,74.98
2024-02-28T08:57:59.779Z,74.22
2024-02-28T08:58:59.593Z,73.71
2024-02-28T08:59:59.597Z,73.47
2024-02-28T09:00:59.748Z,72.85
2024-02-28T09:01:59.619Z,70.79
2024-02-28T09:02:59.532Z,71.83
2024-02-28T09:03:59.620Z,72.44
2024-02-28T09:04:59.548Z,72.34
2024-02-28T09:05:59.507Z,72.44
2024-02-28T09:06:59.538Z,72.44
2024-02-28T09:07:59.480Z,72.34
2024-02-28T09:08:59.452Z,72.44
2024-02-28T09:09:59.487Z,72.75
2024-02-28T09:10:59.496Z,72.75
2024-02-28T09:11:59.445Z,73.06
2024-02-28T09:12:59.547Z,71.51
2024-02-28T09:13:59.398Z,71.00
2024-02-28T09:14:59.405Z,71.51
2024-02-28T09:15:59.482Z,72.00
2024-02-28T09:16:59.360Z,71.69
2024-02-28T09:17:59.388Z,70.15
2024-02-28T09:18:59.437Z,69.23
2024-02-28T09:19:59.354Z,70.15
2024-02-28T09:20:59.311Z,69.60
2024-02-28T09:21:59.378Z,68.99
2024-02-28T09:22:59.273Z,69.29
2024-02-28T09:23:59.301Z,70.36
2024-02-28T09:24:59.297Z,70.36
2024-02-28T09:25:59.243Z,70.36
2024-02-28T09:26:59.216Z,70.56
2024-02-28T09:27:59.290Z,70.66
2024-02-28T09:28:59.225Z,70.66
2024-02-28T09:29:59.199Z,70.56
2024-02-28T09:30:59.192Z,70.15
2024-02-28T09:31:59.160Z,70.56
2024-02-28T09:32:59.143Z,70.46
2024-02-28T09:33:59.204Z,70.04
2024-02-28T09:34:59.122Z,69.43
2024-02-28T09:35:59.099Z,69.67
2024-02-28T09:36:59.140Z,69.36
2024-02-28T09:37:59.082Z,68.23
2024-02-28T09:38:59.071Z,68.26
2024-02-28T09:39:59.126Z,69.29
2024-02-28T09:40:59.036Z,69.60
2024-02-28T09:41:59.019Z,69.29
2024-02-28T09:42:59.544Z,69.73
2024-02-28T09:43:58.988Z,70.14
2024-02-28T09:44:58.974Z,70.25
2024-02-28T09:45:59.019Z,70.04
2024-02-28T09:46:58.941Z,69.84
2024-02-28T09:47:58.973Z,70.18
2024-02-28T09:48:58.914Z,70.28
2024-02-28T09:49:58.918Z,70.79
2024-02-28T09:50:58.920Z,71.00
2024-02-28T09:51:58.983Z,71.41
2024-02-28T09:53:06.438Z,71.31
2024-02-28T09:54:01.965Z,71.41
2024-02-28T09:54:58.925Z,71.41
2024-02-28T09:55:58.830Z,71.00
2024-02-28T09:56:58.828Z,71.10
2024-02-28T09:57:58.887Z,70.18
2024-02-28T09:58:58.788Z,70.69
2024-02-28T09:59:58.807Z,69.97
2024-02-28T10:00:58.821Z,70.48
2024-02-28T10:01:58.757Z,70.79
2024-02-28T10:02:58.763Z,70.45
2024-02-28T10:03:58.874Z,71.07
2024-02-28T10:04:58.701Z,70.86
2024-02-28T10:06:00.119Z,70.35
2024-02-28T10:06:58.845Z,70.56
2024-02-28T10:08:07.427Z,70.35
2024-02-28T10:08:58.653Z,70.66
2024-02-28T10:09:58.756Z,70.45
2024-02-28T10:10:58.659Z,70.25
2024-02-28T10:11:58.628Z,70.32
2024-02-28T10:12:58.655Z,70.32
2024-02-28T10:13:58.610Z,70.52
2024-02-28T10:14:58.587Z,69.98
2024-02-28T10:15:58.616Z,68.61
2024-02-28T10:16:58.569Z,68.06
2024-02-28T10:17:58.582Z,67.96
2024-02-28T10:18:58.557Z,68.21
2024-02-28T10:19:58.546Z,67.76
2024-02-28T10:20:58.516Z,67.11
2024-02-28T10:21:58.583Z,66.78
2024-02-28T10:22:58.460Z,63.91
2024-02-28T10:23:58.797Z,64.94
2024-02-28T10:25:58.652Z,66.78
2024-02-28T10:26:58.546Z,65.62
2024-02-28T10:27:58.434Z,65.42
2024-02-28T10:28:58.387Z,66.24
2024-02-28T10:29:58.383Z,65.72
2024-02-28T10:30:58.489Z,66.13
2024-02-28T10:31:58.342Z,64.90
2024-02-28T10:32:58.381Z,63.98
2024-02-28T10:33:58.391Z,65.01
2024-02-28T10:34:58.347Z,65.08
2024-02-28T10:35:58.312Z,65.08
2024-02-28T10:36:58.427Z,64.77
2024-02-28T10:37:58.284Z,64.39
2024-02-28T10:38:58.269Z,63.37
2024-02-28T10:39:58.326Z,63.95
2024-02-28T10:40:58.246Z,65.69
2024-02-28T10:41:58.209Z,66.41
2024-02-28T10:42:58.267Z,64.84
2024-02-28T10:43:58.317Z,64.74
2024-02-28T10:45:09.838Z,64.33
2024-02-28T10:46:17.530Z,64.03
2024-02-28T10:46:59.150Z,64.71
2024-02-28T10:47:58.184Z,64.51
2024-02-28T10:48:58.174Z,62.74
2024-02-28T10:49:58.124Z,62.54
2024-02-28T10:50:58.109Z,62.84
2024-02-28T10:51:58.233Z,60.87
2024-02-28T10:53:09.920Z,60.67
2024-02-28T10:53:58.059Z,62.51
2024-02-28T10:54:58.061Z,62.10
2024-02-28T10:55:58.047Z,63.43
2024-02-28T10:56:58.024Z,61.87
2024-02-28T10:57:58.041Z,63.70
2024-02-28T10:58:57.994Z,64.18
2024-02-28T10:59:57.983Z,63.87
2024-02-28T11:00:58.078Z,60.82
2024-02-28T11:01:57.954Z,61.94
2024-02-28T11:02:57.938Z,58.98
2024-02-28T11:03:58.004Z,59.39
2024-02-28T11:04:57.909Z,59.56
2024-02-28T11:05:57.898Z,59.66
2024-02-28T11:06:58.263Z,57.32
2024-02-28T11:07:57.867Z,57.52
2024-02-28T11:08:58.143Z,58.23
2024-02-28T11:09:57.950Z,59.46
2024-02-28T11:10:57.848Z,58.64
2024-02-28T11:11:57.911Z,59.56
2024-02-28T11:12:57.870Z,59.74
2024-02-28T11:13:57.817Z,58.62
2024-02-28T11:14:57.772Z,59.74
2024-02-28T11:15:57.974Z,61.07
2024-02-28T11:16:57.761Z,58.41
2024-02-28T11:17:57.771Z,62.26
2024-02-28T11:18:57.764Z,59.71
2024-02-28T11:19:57.732Z,60.32
2024-02-28T11:20:57.707Z,59.17
2024-02-28T11:21:57.743Z,57.17
2024-02-28T11:22:57.676Z,56.52
2024-02-28T11:23:57.700Z,57.65
2024-02-28T11:24:57.717Z,61.31
2024-02-28T11:25:57.629Z,58.39
2024-02-28T11:26:57.646Z,58.49
2024-02-28T11:27:57.661Z,56.93
2024-02-28T11:28:57.587Z,55.71
2024-02-28T11:29:57.587Z,57.54
2024-02-28T11:30:57.687Z,57.04
2024-02-28T11:31:57.563Z,57.85
2024-02-28T11:33:00.835Z,58.64
2024-02-28T11:33:58.545Z,57.82
2024-02-28T11:34:57.505Z,57.92
2024-02-28T11:35:57.510Z,55.79
2024-02-28T11:36:57.992Z,56.12
2024-02-28T11:37:57.511Z,59.07
2024-02-28T11:38:59.952Z,55.91
2024-02-28T11:39:57.458Z,57.54
2024-02-28T11:40:57.444Z,57.54
2024-02-28T11:41:57.427Z,56.22
2024-02-28T11:42:57.452Z,56.52
2024-02-28T11:43:57.407Z,56.02
2024-02-28T11:45:00.910Z,56.93
2024-02-28T11:45:57.501Z,56.52
2024-02-28T11:46:57.355Z,55.91
2024-02-28T11:47:57.389Z,56.63
2024-02-28T11:48:57.514Z,58.15
2024-02-28T11:49:57.329Z,57.21
2024-02-28T11:50:57.299Z,55.68
2024-02-28T11:51:57.328Z,57.11
2024-02-28T11:52:57.270Z,56.09
2024-02-28T11:53:57.254Z,57.31
2024-02-28T11:54:57.267Z,57.62
2024-02-28T11:55:57.245Z,58.92
2024-02-28T11:56:58.866Z,57.79
2024-02-28T11:57:57.301Z,59.42
2024-02-28T11:58:57.184Z,59.80
2024-02-28T11:59:57.222Z,58.17
2024-02-28T12:00:57.274Z,58.78
2024-02-28T12:01:57.253Z,56.65
2024-02-28T12:02:57.119Z,54.92
2024-02-28T12:03:57.192Z,57.16
2024-02-28T12:04:57.105Z,56.34
2024-02-28T12:05:57.123Z,56.04
2024-02-28T12:06:57.152Z,56.75
2024-02-28T12:07:57.498Z,57.46
2024-02-28T12:08:57.058Z,57.87
2024-02-28T12:09:57.113Z,56.85
2024-02-28T12:10:57.045Z,57.56
2024-02-28T12:11:57.003Z,56.65
2024-02-28T12:12:57.079Z,56.24
2024-02-28T12:13:57.010Z,55.86
2024-02-28T12:14:56.977Z,56.07
2024-02-28T12:15:57.047Z,55.86
2024-02-28T12:16:56.959Z,54.94
2024-02-28T12:17:56.983Z,56.09
2024-02-28T12:18:56.951Z,56.68
2024-02-28T12:19:56.994Z,57.69
2024-02-28T12:20:56.885Z,56.47
2024-02-28T12:21:56.930Z,57.90
2024-02-28T12:22:56.862Z,56.40
2024-02-28T12:23:56.857Z,58.33
2024-02-28T12:24:57.028Z,60.68
2024-02-28T12:25:56.842Z,58.33
2024-02-28T12:26:56.826Z,55.18
2024-02-28T12:27:56.931Z,56.32
2024-02-28T12:28:56.787Z,56.22
2024-02-28T12:29:56.829Z,57.65
2024-02-28T12:30:56.807Z,56.65
2024-02-28T12:31:56.760Z,53.90
2024-02-28T12:32:56.795Z,54.82
2024-02-28T12:33:56.797Z,54.24
2024-02-28T12:34:56.691Z,53.64
2024-02-28T12:35:56.708Z,55.18
2024-02-28T12:36:56.753Z,54.87
2024-02-28T12:37:56.685Z,54.26
2024-02-28T12:38:56.657Z,56.81
2024-02-28T12:39:56.694Z,57.21
2024-02-28T12:40:56.620Z,56.81
2024-02-28T12:41:56.595Z,56.81
2024-02-28T12:42:57.013Z,57.29
2024-02-28T12:43:56.595Z,55.26
2024-02-28T12:44:56.571Z,54.85
2024-02-28T12:45:56.567Z,57.39
2024-02-28T12:46:56.539Z,58.59
2024-02-28T12:47:56.545Z,59.30
2024-02-28T12:48:56.583Z,55.94
2024-02-28T12:49:56.502Z,56.68
2024-02-28T12:50:56.481Z,55.05
2024-02-28T12:51:56.531Z,56.48
2024-02-28T12:52:56.476Z,57.60
2024-02-28T12:53:56.443Z,57.70
2024-02-28T12:54:56.487Z,56.68
2024-02-28T12:55:56.416Z,57.19
2024-02-28T12:56:56.398Z,59.41
2024-02-28T12:57:56.491Z,57.78
2024-02-28T12:58:56.388Z,57.06
2024-02-28T12:59:56.364Z,59.20
2024-02-28T13:00:56.441Z,55.91
2024-02-28T13:01:56.405Z,52.78
2024-02-28T13:02:56.382Z,52.50
2024-02-28T13:03:56.344Z,54.64
2024-02-28T13:04:56.315Z,56.48
2024-02-28T13:05:56.292Z,55.87
2024-02-28T13:06:56.302Z,55.84